sensor_id;sensor_type;location;lat;lon;timestamp;P1;durP1;ratioP1;P2;durP2;ratioP2
18206;SDS011;9229;52.354;20.886;2023-01-01T00:04:19;14.13;;;8.90;;
18206;SDS011;9229;52.354;20.886;2023-01-01T00:09:21;14.40;;;8.20;;
18206;SDS011;9229;52.354;20.886;2023-01-01T00:14:43;12.63;;;7.00;;
18206;SDS011;9229;52.354;20.886;2023-01-01T00:19:50;13.13;;;7.43;;
18206;SDS011;9229;52.354;20.886;2023-01-01T00:24:52;11.73;;;8.50;;
18206;SDS011;9229;52.354;20.886;2023-01-01T00:29:54;15.38;;;9.18;;
18206;SDS011;9229;52.354;20.886;2023-01-01T00:34:58;12.20;;;9.30;;
18206;SDS011;9229;52.354;20.886;2023-01-01T00:40:00;14.43;;;8.85;;
18206;SDS011;9229;52.354;20.886;2023-01-01T00:45:06;13.45;;;8.25;;
18206;SDS011;9229;52.354;20.886;2023-01-01T00:50:12;14.95;;;8.48;;
18206;SDS011;9229;52.354;20.886;2023-01-01T00:55:14;9.73;;;6.95;;
18206;SDS011;9229;52.354;20.886;2023-01-01T01:00:17;12.27;;;6.97;;
18206;SDS011;9229;52.354;20.886;2023-01-01T01:05:20;9.02;;;5.97;;
18206;SDS011;9229;52.354;20.886;2023-01-01T01:10:22;8.30;;;6.10;;
18206;SDS011;9229;52.354;20.886;2023-01-01T01:15:25;9.10;;;5.70;;
18206;SDS011;9229;52.354;20.886;2023-01-01T01:20:29;9.30;;;6.07;;
18206;SDS011;9229;52.354;20.886;2023-01-01T01:25:33;8.52;;;5.80;;
18206;SDS011;9229;52.354;20.886;2023-01-01T01:30:36;5.95;;;5.28;;
18206;SDS011;9229;52.354;20.886;2023-01-01T01:35:39;7.78;;;5.32;;
18206;SDS011;9229;52.354;20.886;2023-01-01T01:40:45;7.85;;;5.13;;
18206;SDS011;9229;52.354;20.886;2023-01-01T01:45:47;10.15;;;5.93;;
18206;SDS011;9229;52.354;20.886;2023-01-01T01:50:51;11.73;;;6.03;;
18206;SDS011;9229;52.354;20.886;2023-01-01T01:55:57;7.65;;;5.25;;
18206;SDS011;9229;52.354;20.886;2023-01-01T02:01:01;6.35;;;5.55;;
18206;SDS011;9229;52.354;20.886;2023-01-01T02:06:05;10.15;;;6.07;;
18206;SDS011;9229;52.354;20.886;2023-01-01T02:11:07;10.05;;;6.30;;
18206;SDS011;9229;52.354;20.886;2023-01-01T02:16:12;6.57;;;5.53;;
18206;SDS011;9229;52.354;20.886;2023-01-01T02:21:23;7.70;;;5.45;;
18206;SDS011;9229;52.354;20.886;2023-01-01T02:26:36;5.80;;;4.97;;
18206;SDS011;9229;52.354;20.886;2023-01-01T02:31:48;6.00;;;5.30;;
18206;SDS011;9229;52.354;20.886;2023-01-01T02:36:58;9.70;;;5.32;;
18206;SDS011;9229;52.354;20.886;2023-01-01T02:42:02;9.13;;;6.03;;
18206;SDS011;9229;52.354;20.886;2023-01-01T02:47:10;5.80;;;5.22;;
18206;SDS011;9229;52.354;20.886;2023-01-01T02:52:20;6.45;;;5.10;;
18206;SDS011;9229;52.354;20.886;2023-01-01T02:57:34;6.60;;;5.03;;
18206;SDS011;9229;52.354;20.886;2023-01-01T03:02:44;7.35;;;5.38;;
18206;SDS011;9229;52.354;20.886;2023-01-01T03:07:58;9.93;;;5.32;;
18206;SDS011;9229;52.354;20.886;2023-01-01T03:13:07;6.32;;;5.07;;
18206;SDS011;9229;52.354;20.886;2023-01-01T03:18:14;10.02;;;5.20;;
18206;SDS011;9229;52.354;20.886;2023-01-01T03:23:22;6.88;;;5.00;;
18206;SDS011;9229;52.354;20.886;2023-01-01T03:28:28;6.63;;;5.32;;
18206;SDS011;9229;52.354;20.886;2023-01-01T03:33:37;4.88;;;4.47;;
18206;SDS011;9229;52.354;20.886;2023-01-01T03:38:44;6.85;;;4.97;;
18206;SDS011;9229;52.354;20.886;2023-01-01T03:43:50;6.28;;;4.55;;
18206;SDS011;9229;52.354;20.886;2023-01-01T03:48:58;7.22;;;4.38;;
18206;SDS011;9229;52.354;20.886;2023-01-01T03:54:07;7.78;;;4.20;;
18206;SDS011;9229;52.354;20.886;2023-01-01T03:59:18;6.97;;;4.72;;
18206;SDS011;9229;52.354;20.886;2023-01-01T04:04:25;7.60;;;4.45;;
18206;SDS011;9229;52.354;20.886;2023-01-01T04:09:28;6.20;;;4.60;;
18206;SDS011;9229;52.354;20.886;2023-01-01T04:14:34;7.15;;;5.20;;
18206;SDS011;9229;52.354;20.886;2023-01-01T04:19:39;7.10;;;4.25;;
18206;SDS011;9229;52.354;20.886;2023-01-01T04:24:42;4.22;;;3.90;;
18206;SDS011;9229;52.354;20.886;2023-01-01T04:29:44;5.72;;;4.70;;
18206;SDS011;9229;52.354;20.886;2023-01-01T04:34:48;4.18;;;3.72;;
18206;SDS011;9229;52.354;20.886;2023-01-01T04:39:50;6.60;;;4.65;;
18206;SDS011;9229;52.354;20.886;2023-01-01T04:44:53;5.95;;;4.72;;
18206;SDS011;9229;52.354;20.886;2023-01-01T04:49:57;5.20;;;4.30;;
18206;SDS011;9229;52.354;20.886;2023-01-01T04:54:59;4.65;;;4.25;;
18206;SDS011;9229;52.354;20.886;2023-01-01T05:00:01;6.97;;;4.25;;
18206;SDS011;9229;52.354;20.886;2023-01-01T05:05:05;4.85;;;4.45;;
18206;SDS011;9229;52.354;20.886;2023-01-01T05:10:08;8.60;;;4.32;;
18206;SDS011;9229;52.354;20.886;2023-01-01T05:15:10;4.82;;;4.43;;
18206;SDS011;9229;52.354;20.886;2023-01-01T05:20:13;4.40;;;4.00;;
18206;SDS011;9229;52.354;20.886;2023-01-01T05:25:15;6.78;;;3.78;;
18206;SDS011;9229;52.354;20.886;2023-01-01T05:30:17;5.63;;;4.40;;
18206;SDS011;9229;52.354;20.886;2023-01-01T05:35:21;6.15;;;4.43;;
18206;SDS011;9229;52.354;20.886;2023-01-01T05:40:23;8.55;;;4.35;;
18206;SDS011;9229;52.354;20.886;2023-01-01T05:45:25;6.35;;;4.63;;
18206;SDS011;9229;52.354;20.886;2023-01-01T05:50:28;4.38;;;3.97;;
18206;SDS011;9229;52.354;20.886;2023-01-01T05:55:31;6.38;;;4.43;;
18206;SDS011;9229;52.354;20.886;2023-01-01T06:00:33;5.35;;;4.10;;
18206;SDS011;9229;52.354;20.886;2023-01-01T06:05:39;4.10;;;3.63;;
18206;SDS011;9229;52.354;20.886;2023-01-01T06:10:43;5.93;;;4.07;;
18206;SDS011;9229;52.354;20.886;2023-01-01T06:15:51;8.05;;;4.40;;
18206;SDS011;9229;52.354;20.886;2023-01-01T06:21:01;4.70;;;4.20;;
18206;SDS011;9229;52.354;20.886;2023-01-01T06:26:05;4.63;;;4.22;;
18206;SDS011;9229;52.354;20.886;2023-01-01T06:31:09;4.15;;;3.85;;
18206;SDS011;9229;52.354;20.886;2023-01-01T06:36:15;4.22;;;3.80;;
18206;SDS011;9229;52.354;20.886;2023-01-01T06:41:20;4.70;;;4.22;;
18206;SDS011;9229;52.354;20.886;2023-01-01T06:46:24;3.97;;;3.65;;
18206;SDS011;9229;52.354;20.886;2023-01-01T06:51:29;7.78;;;4.28;;
18206;SDS011;9229;52.354;20.886;2023-01-01T06:56:33;4.60;;;4.03;;
18206;SDS011;9229;52.354;20.886;2023-01-01T07:01:37;4.63;;;4.22;;
18206;SDS011;9229;52.354;20.886;2023-01-01T07:06:41;4.72;;;4.18;;
18206;SDS011;9229;52.354;20.886;2023-01-01T07:11:44;5.30;;;4.80;;
18206;SDS011;9229;52.354;20.886;2023-01-01T07:16:46;6.60;;;4.68;;
18206;SDS011;9229;52.354;20.886;2023-01-01T07:21:52;5.97;;;4.38;;
18206;SDS011;9229;52.354;20.886;2023-01-01T07:26:54;5.10;;;4.57;;
18206;SDS011;9229;52.354;20.886;2023-01-01T07:31:56;4.53;;;4.10;;
18206;SDS011;9229;52.354;20.886;2023-01-01T07:37:04;4.72;;;4.22;;
18206;SDS011;9229;52.354;20.886;2023-01-01T07:42:06;5.38;;;4.05;;
18206;SDS011;9229;52.354;20.886;2023-01-01T07:47:09;5.18;;;4.13;;
18206;SDS011;9229;52.354;20.886;2023-01-01T07:52:20;5.10;;;3.90;;
18206;SDS011;9229;52.354;20.886;2023-01-01T07:57:22;5.88;;;4.35;;
18206;SDS011;9229;52.354;20.886;2023-01-01T08:02:24;4.00;;;3.60;;
18206;SDS011;9229;52.354;20.886;2023-01-01T08:07:28;5.70;;;4.18;;
18206;SDS011;9229;52.354;20.886;2023-01-01T08:12:34;3.90;;;3.38;;
18206;SDS011;9229;52.354;20.886;2023-01-01T08:17:36;4.28;;;3.35;;
18206;SDS011;9229;52.354;20.886;2023-01-01T08:22:41;10.70;;;3.95;;
18206;SDS011;9229;52.354;20.886;2023-01-01T08:27:43;3.38;;;3.17;;
18206;SDS011;9229;52.354;20.886;2023-01-01T08:32:45;5.32;;;3.60;;
18206;SDS011;9229;52.354;20.886;2023-01-01T08:37:55;3.55;;;3.10;;
18206;SDS011;9229;52.354;20.886;2023-01-01T08:42:57;4.68;;;3.63;;
18206;SDS011;9229;52.354;20.886;2023-01-01T08:47:59;4.75;;;3.55;;
18206;SDS011;9229;52.354;20.886;2023-01-01T08:53:03;2.97;;;2.78;;
18206;SDS011;9229;52.354;20.886;2023-01-01T08:58:05;5.07;;;2.97;;
18206;SDS011;9229;52.354;20.886;2023-01-01T09:03:07;6.25;;;3.20;;
18206;SDS011;9229;52.354;20.886;2023-01-01T09:08:11;11.00;;;4.28;;
18206;SDS011;9229;52.354;20.886;2023-01-01T09:13:14;8.65;;;5.10;;
18206;SDS011;9229;52.354;20.886;2023-01-01T09:18:17;6.80;;;4.55;;
18206;SDS011;9229;52.354;20.886;2023-01-01T09:23:21;5.28;;;3.28;;
18206;SDS011;9229;52.354;20.886;2023-01-01T09:28:23;7.03;;;3.25;;
18206;SDS011;9229;52.354;20.886;2023-01-01T09:33:27;9.90;;;4.13;;
18206;SDS011;9229;52.354;20.886;2023-01-01T09:38:31;8.45;;;3.85;;
18206;SDS011;9229;52.354;20.886;2023-01-01T09:43:35;4.63;;;3.25;;
18206;SDS011;9229;52.354;20.886;2023-01-01T09:48:50;5.15;;;3.10;;
18206;SDS011;9229;52.354;20.886;2023-01-01T09:53:58;7.30;;;3.22;;
18206;SDS011;9229;52.354;20.886;2023-01-01T09:59:06;5.78;;;3.10;;
18206;SDS011;9229;52.354;20.886;2023-01-01T10:04:23;13.85;;;6.28;;
18206;SDS011;9229;52.354;20.886;2023-01-01T10:09:41;12.93;;;3.60;;
18206;SDS011;9229;52.354;20.886;2023-01-01T10:14:54;11.45;;;3.60;;
18206;SDS011;9229;52.354;20.886;2023-01-01T10:20:06;12.75;;;3.60;;
18206;SDS011;9229;52.354;20.886;2023-01-01T10:25:24;8.07;;;3.65;;
18206;SDS011;9229;52.354;20.886;2023-01-01T10:30:36;12.90;;;4.28;;
18206;SDS011;9229;52.354;20.886;2023-01-01T10:35:52;8.07;;;4.55;;
18206;SDS011;9229;52.354;20.886;2023-01-01T10:42:00;10.35;;;4.55;;
18206;SDS011;9229;52.354;20.886;2023-01-01T10:53:02;5.35;;;3.15;;
18206;SDS011;9229;52.354;20.886;2023-01-01T10:58:09;8.68;;;3.45;;
18206;SDS011;9229;52.354;20.886;2023-01-01T11:03:58;17.17;;;3.53;;
18206;SDS011;9229;52.354;20.886;2023-01-01T11:09:04;8.68;;;3.08;;
18206;SDS011;9229;52.354;20.886;2023-01-01T11:14:24;10.88;;;3.22;;
18206;SDS011;9229;52.354;20.886;2023-01-01T11:19:29;7.43;;;2.80;;
18206;SDS011;9229;52.354;20.886;2023-01-01T11:24:39;14.82;;;3.45;;
18206;SDS011;9229;52.354;20.886;2023-01-01T11:29:50;4.10;;;3.20;;
18206;SDS011;9229;52.354;20.886;2023-01-01T11:35:15;9.05;;;3.60;;
18206;SDS011;9229;52.354;20.886;2023-01-01T11:40:31;6.10;;;3.80;;
18206;SDS011;9229;52.354;20.886;2023-01-01T11:45:48;4.63;;;3.13;;
18206;SDS011;9229;52.354;20.886;2023-01-01T11:50:51;9.95;;;3.65;;
18206;SDS011;9229;52.354;20.886;2023-01-01T11:55:58;8.02;;;3.22;;
18206;SDS011;9229;52.354;20.886;2023-01-01T12:01:11;8.18;;;3.05;;
18206;SDS011;9229;52.354;20.886;2023-01-01T12:06:18;16.10;;;4.32;;
18206;SDS011;9229;52.354;20.886;2023-01-01T12:11:24;5.00;;;2.85;;
18206;SDS011;9229;52.354;20.886;2023-01-01T12:16:38;7.18;;;2.80;;
18206;SDS011;9229;52.354;20.886;2023-01-01T12:21:48;12.98;;;3.55;;
18206;SDS011;9229;52.354;20.886;2023-01-01T12:26:59;6.47;;;3.03;;
18206;SDS011;9229;52.354;20.886;2023-01-01T12:32:13;10.15;;;4.25;;
18206;SDS011;9229;52.354;20.886;2023-01-01T12:37:25;8.75;;;3.70;;
18206;SDS011;9229;52.354;20.886;2023-01-01T12:42:42;6.43;;;3.47;;
18206;SDS011;9229;52.354;20.886;2023-01-01T12:47:54;10.13;;;3.42;;
18206;SDS011;9229;52.354;20.886;2023-01-01T12:53:01;6.50;;;3.38;;
18206;SDS011;9229;52.354;20.886;2023-01-01T12:58:11;3.58;;;3.20;;
18206;SDS011;9229;52.354;20.886;2023-01-01T13:03:20;6.93;;;3.10;;
18206;SDS011;9229;52.354;20.886;2023-01-01T13:08:27;11.30;;;4.05;;
18206;SDS011;9229;52.354;20.886;2023-01-01T13:13:29;8.95;;;3.47;;
18206;SDS011;9229;52.354;20.886;2023-01-01T13:18:34;5.35;;;3.30;;
18206;SDS011;9229;52.354;20.886;2023-01-01T13:23:43;8.48;;;3.65;;
18206;SDS011;9229;52.354;20.886;2023-01-01T13:34:39;5.25;;;3.60;;
18206;SDS011;9229;52.354;20.886;2023-01-01T13:40:31;6.75;;;3.97;;
18206;SDS011;9229;52.354;20.886;2023-01-01T13:45:52;5.35;;;3.92;;
18206;SDS011;9229;52.354;20.886;2023-01-01T13:51:00;5.95;;;3.72;;
18206;SDS011;9229;52.354;20.886;2023-01-01T13:56:32;3.72;;;3.33;;
18206;SDS011;9229;52.354;20.886;2023-01-01T14:01:44;7.75;;;3.40;;
18206;SDS011;9229;52.354;20.886;2023-01-01T14:07:19;7.30;;;3.17;;
18206;SDS011;9229;52.354;20.886;2023-01-01T14:12:36;12.43;;;3.72;;
18206;SDS011;9229;52.354;20.886;2023-01-01T14:17:39;7.03;;;3.75;;
18206;SDS011;9229;52.354;20.886;2023-01-01T14:22:44;12.55;;;4.78;;
18206;SDS011;9229;52.354;20.886;2023-01-01T14:27:53;6.40;;;4.30;;
18206;SDS011;9229;52.354;20.886;2023-01-01T14:33:01;10.05;;;3.67;;
18206;SDS011;9229;52.354;20.886;2023-01-01T14:38:20;7.70;;;4.30;;
18206;SDS011;9229;52.354;20.886;2023-01-01T14:43:26;7.30;;;3.53;;
18206;SDS011;9229;52.354;20.886;2023-01-01T14:48:29;9.43;;;3.80;;
18206;SDS011;9229;52.354;20.886;2023-01-01T14:53:34;5.55;;;3.80;;
18206;SDS011;9229;52.354;20.886;2023-01-01T14:58:38;4.75;;;4.00;;
18206;SDS011;9229;52.354;20.886;2023-01-01T15:03:53;5.75;;;4.20;;
18206;SDS011;9229;52.354;20.886;2023-01-01T15:09:03;8.70;;;5.07;;
18206;SDS011;9229;52.354;20.886;2023-01-01T15:19:33;5.05;;;3.90;;
18206;SDS011;9229;52.354;20.886;2023-01-01T15:24:37;6.25;;;4.65;;
18206;SDS011;9229;52.354;20.886;2023-01-01T15:29:43;6.93;;;5.68;;
18206;SDS011;9229;52.354;20.886;2023-01-01T15:34:49;6.97;;;4.63;;
18206;SDS011;9229;52.354;20.886;2023-01-01T15:39:58;11.48;;;5.03;;
18206;SDS011;9229;52.354;20.886;2023-01-01T15:45:13;6.85;;;5.00;;
18206;SDS011;9229;52.354;20.886;2023-01-01T15:50:21;7.35;;;5.03;;
18206;SDS011;9229;52.354;20.886;2023-01-01T15:55:26;9.93;;;4.97;;
18206;SDS011;9229;52.354;20.886;2023-01-01T16:00:32;7.03;;;5.28;;
18206;SDS011;9229;52.354;20.886;2023-01-01T16:05:37;11.65;;;5.72;;
18206;SDS011;9229;52.354;20.886;2023-01-01T16:10:49;29.10;;;10.18;;
18206;SDS011;9229;52.354;20.886;2023-01-01T16:15:59;18.10;;;8.30;;
18206;SDS011;9229;52.354;20.886;2023-01-01T16:21:03;8.73;;;4.88;;
18206;SDS011;9229;52.354;20.886;2023-01-01T16:26:07;8.10;;;5.40;;
18206;SDS011;9229;52.354;20.886;2023-01-01T16:31:19;13.57;;;5.57;;
18206;SDS011;9229;52.354;20.886;2023-01-01T16:36:25;11.77;;;6.47;;
18206;SDS011;9229;52.354;20.886;2023-01-01T16:41:31;13.93;;;5.70;;
18206;SDS011;9229;52.354;20.886;2023-01-01T16:46:33;7.47;;;4.85;;
18206;SDS011;9229;52.354;20.886;2023-01-01T16:51:35;8.95;;;5.55;;
18206;SDS011;9229;52.354;20.886;2023-01-01T16:56:38;11.32;;;6.00;;
18206;SDS011;9229;52.354;20.886;2023-01-01T17:01:40;11.52;;;5.60;;
18206;SDS011;9229;52.354;20.886;2023-01-01T17:06:45;10.18;;;5.57;;
18206;SDS011;9229;52.354;20.886;2023-01-01T17:11:49;8.02;;;6.00;;
18206;SDS011;9229;52.354;20.886;2023-01-01T17:16:52;9.57;;;6.10;;
18206;SDS011;9229;52.354;20.886;2023-01-01T17:21:55;11.13;;;5.50;;
18206;SDS011;9229;52.354;20.886;2023-01-01T17:26:59;7.93;;;5.90;;
18206;SDS011;9229;52.354;20.886;2023-01-01T17:32:01;12.73;;;6.88;;
18206;SDS011;9229;52.354;20.886;2023-01-01T17:37:03;12.45;;;6.63;;
18206;SDS011;9229;52.354;20.886;2023-01-01T17:42:07;6.80;;;5.88;;
18206;SDS011;9229;52.354;20.886;2023-01-01T17:47:09;9.48;;;6.60;;
18206;SDS011;9229;52.354;20.886;2023-01-01T17:52:11;11.23;;;6.80;;
18206;SDS011;9229;52.354;20.886;2023-01-01T17:57:14;9.63;;;5.68;;
18206;SDS011;9229;52.354;20.886;2023-01-01T18:02:17;10.13;;;6.65;;
18206;SDS011;9229;52.354;20.886;2023-01-01T18:07:19;14.55;;;7.15;;
18206;SDS011;9229;52.354;20.886;2023-01-01T18:12:22;14.27;;;7.50;;
18206;SDS011;9229;52.354;20.886;2023-01-01T18:17:26;8.40;;;5.72;;
18206;SDS011;9229;52.354;20.886;2023-01-01T18:22:28;10.43;;;6.07;;
18206;SDS011;9229;52.354;20.886;2023-01-01T18:27:31;17.05;;;6.60;;
18206;SDS011;9229;52.354;20.886;2023-01-01T18:32:36;8.98;;;5.68;;
18206;SDS011;9229;52.354;20.886;2023-01-01T18:37:38;11.77;;;6.60;;
18206;SDS011;9229;52.354;20.886;2023-01-01T18:42:46;10.38;;;5.95;;
18206;SDS011;9229;52.354;20.886;2023-01-01T18:47:54;10.70;;;6.60;;
18206;SDS011;9229;52.354;20.886;2023-01-01T18:52:59;11.57;;;6.43;;
18206;SDS011;9229;52.354;20.886;2023-01-01T18:58:16;9.00;;;5.68;;
18206;SDS011;9229;52.354;20.886;2023-01-01T19:03:19;15.73;;;6.07;;
18206;SDS011;9229;52.354;20.886;2023-01-01T19:08:28;10.10;;;5.50;;
18206;SDS011;9229;52.354;20.886;2023-01-01T19:13:35;7.32;;;5.75;;
18206;SDS011;9229;52.354;20.886;2023-01-01T19:18:41;18.83;;;7.63;;
18206;SDS011;9229;52.354;20.886;2023-01-01T19:23:46;9.98;;;6.15;;
18206;SDS011;9229;52.354;20.886;2023-01-01T19:28:52;8.27;;;5.97;;
18206;SDS011;9229;52.354;20.886;2023-01-01T19:34:02;7.97;;;6.03;;
18206;SDS011;9229;52.354;20.886;2023-01-01T19:39:05;12.23;;;6.47;;
18206;SDS011;9229;52.354;20.886;2023-01-01T19:44:10;10.10;;;6.68;;
18206;SDS011;9229;52.354;20.886;2023-01-01T19:49:13;12.80;;;5.80;;
18206;SDS011;9229;52.354;20.886;2023-01-01T19:54:17;11.80;;;6.85;;
18206;SDS011;9229;52.354;20.886;2023-01-01T19:59:24;12.68;;;7.35;;
18206;SDS011;9229;52.354;20.886;2023-01-01T20:04:26;10.50;;;6.43;;
18206;SDS011;9229;52.354;20.886;2023-01-01T20:09:31;14.13;;;6.47;;
18206;SDS011;9229;52.354;20.886;2023-01-01T20:14:37;12.93;;;6.72;;
18206;SDS011;9229;52.354;20.886;2023-01-01T20:19:40;13.52;;;7.18;;
18206;SDS011;9229;52.354;20.886;2023-01-01T20:24:42;12.18;;;7.43;;
18206;SDS011;9229;52.354;20.886;2023-01-01T20:29:47;12.48;;;7.07;;
18206;SDS011;9229;52.354;20.886;2023-01-01T20:34:49;15.23;;;7.20;;
18206;SDS011;9229;52.354;20.886;2023-01-01T20:39:58;9.70;;;7.00;;
18206;SDS011;9229;52.354;20.886;2023-01-01T20:45:02;12.73;;;7.78;;
18206;SDS011;9229;52.354;20.886;2023-01-01T20:50:04;11.07;;;7.38;;
18206;SDS011;9229;52.354;20.886;2023-01-01T20:55:08;12.38;;;7.30;;
18206;SDS011;9229;52.354;20.886;2023-01-01T21:00:12;13.48;;;7.28;;
18206;SDS011;9229;52.354;20.886;2023-01-01T21:05:14;12.55;;;7.90;;
18206;SDS011;9229;52.354;20.886;2023-01-01T21:10:18;16.02;;;8.27;;
18206;SDS011;9229;52.354;20.886;2023-01-01T21:15:42;16.25;;;8.30;;
18206;SDS011;9229;52.354;20.886;2023-01-01T21:25:12;13.98;;;8.18;;
18206;SDS011;9229;52.354;20.886;2023-01-01T21:30:18;15.25;;;8.25;;
18206;SDS011;9229;52.354;20.886;2023-01-01T21:35:22;17.27;;;7.65;;
18206;SDS011;9229;52.354;20.886;2023-01-01T21:40:50;15.65;;;8.20;;
18206;SDS011;9229;52.354;20.886;2023-01-01T21:46:59;14.85;;;8.48;;
18206;SDS011;9229;52.354;20.886;2023-01-01T21:52:05;18.48;;;9.20;;
18206;SDS011;9229;52.354;20.886;2023-01-01T21:57:17;19.45;;;8.80;;
18206;SDS011;9229;52.354;20.886;2023-01-01T22:07:45;14.77;;;8.60;;
18206;SDS011;9229;52.354;20.886;2023-01-01T22:12:49;16.23;;;9.02;;
18206;SDS011;9229;52.354;20.886;2023-01-01T22:18:00;18.05;;;8.95;;
18206;SDS011;9229;52.354;20.886;2023-01-01T22:23:22;15.48;;;8.93;;
18206;SDS011;9229;52.354;20.886;2023-01-01T22:28:39;28.45;;;9.82;;
18206;SDS011;9229;52.354;20.886;2023-01-01T22:33:43;18.50;;;8.60;;
18206;SDS011;9229;52.354;20.886;2023-01-01T22:38:47;21.52;;;9.68;;
18206;SDS011;9229;52.354;20.886;2023-01-01T22:43:51;20.83;;;10.38;;
18206;SDS011;9229;52.354;20.886;2023-01-01T22:48:59;18.58;;;9.95;;
18206;SDS011;9229;52.354;20.886;2023-01-01T22:54:15;14.57;;;9.20;;
18206;SDS011;9229;52.354;20.886;2023-01-01T22:59:20;15.85;;;9.05;;
18206;SDS011;9229;52.354;20.886;2023-01-01T23:04:22;17.45;;;9.77;;
18206;SDS011;9229;52.354;20.886;2023-01-01T23:09:25;20.25;;;9.02;;
18206;SDS011;9229;52.354;20.886;2023-01-01T23:14:29;18.35;;;9.73;;
18206;SDS011;9229;52.354;20.886;2023-01-01T23:19:55;14.15;;;8.90;;
18206;SDS011;9229;52.354;20.886;2023-01-01T23:24:57;14.90;;;8.88;;
18206;SDS011;9229;52.354;20.886;2023-01-01T23:30:01;13.77;;;8.95;;
18206;SDS011;9229;52.354;20.886;2023-01-01T23:35:04;15.77;;;8.88;;
18206;SDS011;9229;52.354;20.886;2023-01-01T23:40:08;17.27;;;9.43;;
18206;SDS011;9229;52.354;20.886;2023-01-01T23:45:13;16.38;;;9.73;;
18206;SDS011;9229;52.354;20.886;2023-01-01T23:50:16;17.00;;;10.00;;
18206;SDS011;9229;52.354;20.886;2023-01-01T23:55:19;17.60;;;9.27;;
